sensor_id;sensor_type;location;lat;lon;timestamp;temperature;humidity
24678;DHT22;12800;53.094;8.778;2022-10-31T00:01:37;16.00;90.50
24678;DHT22;12800;53.094;8.778;2022-10-31T00:04:04;16.00;90.80
24678;DHT22;12800;53.094;8.778;2022-10-31T00:06:30;16.00;90.50
24678;DHT22;12800;53.094;8.778;2022-10-31T00:08:58;16.00;90.50
24678;DHT22;12800;53.094;8.778;2022-10-31T00:11:24;16.00;90.60
24678;DHT22;12800;53.094;8.778;2022-10-31T00:13:50;15.90;90.60
24678;DHT22;12800;53.094;8.778;2022-10-31T00:16:18;16.00;90.70
24678;DHT22;12800;53.094;8.778;2022-10-31T00:18:44;15.90;90.70
24678;DHT22;12800;53.094;8.778;2022-10-31T00:21:12;15.90;90.70
24678;DHT22;12800;53.094;8.778;2022-10-31T00:23:38;15.90;90.70
24678;DHT22;12800;53.094;8.778;2022-10-31T00:26:04;15.90;90.60
24678;DHT22;12800;53.094;8.778;2022-10-31T00:28:30;15.90;90.60
24678;DHT22;12800;53.094;8.778;2022-10-31T00:31:05;15.80;90.50
24678;DHT22;12800;53.094;8.778;2022-10-31T00:33:32;15.80;90.60
24678;DHT22;12800;53.094;8.778;2022-10-31T00:35:58;15.80;90.50
24678;DHT22;12800;53.094;8.778;2022-10-31T00:38:23;15.70;90.50
24678;DHT22;12800;53.094;8.778;2022-10-31T00:40:49;15.70;90.60
24678;DHT22;12800;53.094;8.778;2022-10-31T00:43:15;15.70;90.60
24678;DHT22;12800;53.094;8.778;2022-10-31T00:45:44;15.70;90.60
24678;DHT22;12800;53.094;8.778;2022-10-31T00:48:09;15.60;90.60
24678;DHT22;12800;53.094;8.778;2022-10-31T00:50:36;15.60;90.60
24678;DHT22;12800;53.094;8.778;2022-10-31T00:53:02;15.60;90.60
24678;DHT22;12800;53.094;8.778;2022-10-31T00:55:28;15.60;90.60
24678;DHT22;12800;53.094;8.778;2022-10-31T00:57:53;15.60;90.70
24678;DHT22;12800;53.094;8.778;2022-10-31T01:00:19;15.60;90.70
24678;DHT22;12800;53.094;8.778;2022-10-31T01:02:45;15.50;90.70
24678;DHT22;12800;53.094;8.778;2022-10-31T01:05:11;15.50;90.70
24678;DHT22;12800;53.094;8.778;2022-10-31T01:07:38;15.50;90.70
24678;DHT22;12800;53.094;8.778;2022-10-31T01:10:05;15.50;90.80
24678;DHT22;12800;53.094;8.778;2022-10-31T01:12:39;15.50;90.80
24678;DHT22;12800;53.094;8.778;2022-10-31T01:15:05;15.50;90.80
24678;DHT22;12800;53.094;8.778;2022-10-31T01:17:31;15.40;90.80
24678;DHT22;12800;53.094;8.778;2022-10-31T01:19:57;15.40;90.80
24678;DHT22;12800;53.094;8.778;2022-10-31T01:22:23;15.40;90.80
24678;DHT22;12800;53.094;8.778;2022-10-31T01:24:48;15.40;90.90
24678;DHT22;12800;53.094;8.778;2022-10-31T01:27:14;15.40;90.90
24678;DHT22;12800;53.094;8.778;2022-10-31T01:29:39;15.40;90.90
24678;DHT22;12800;53.094;8.778;2022-10-31T01:32:05;15.40;90.90
24678;DHT22;12800;53.094;8.778;2022-10-31T01:34:31;15.40;90.90
24678;DHT22;12800;53.094;8.778;2022-10-31T01:36:56;15.30;90.90
24678;DHT22;12800;53.094;8.778;2022-10-31T01:39:22;15.30;91.00
24678;DHT22;12800;53.094;8.778;2022-10-31T01:41:50;15.30;91.00
24678;DHT22;12800;53.094;8.778;2022-10-31T01:49:38;15.30;91.10
24678;DHT22;12800;53.094;8.778;2022-10-31T01:54:39;15.20;91.00
24678;DHT22;12800;53.094;8.778;2022-10-31T01:57:08;15.20;91.00
24678;DHT22;12800;53.094;8.778;2022-10-31T01:59:40;15.20;91.00
24678;DHT22;12800;53.094;8.778;2022-10-31T02:02:07;15.20;91.00
24678;DHT22;12800;53.094;8.778;2022-10-31T02:04:33;15.20;91.00
24678;DHT22;12800;53.094;8.778;2022-10-31T02:07:07;15.20;91.00
24678;DHT22;12800;53.094;8.778;2022-10-31T02:09:34;15.10;91.00
24678;DHT22;12800;53.094;8.778;2022-10-31T02:12:02;15.10;90.90
24678;DHT22;12800;53.094;8.778;2022-10-31T02:14:29;15.10;90.90
24678;DHT22;12800;53.094;8.778;2022-10-31T02:16:55;15.10;90.90
24678;DHT22;12800;53.094;8.778;2022-10-31T02:31:30;15.00;90.90
24678;DHT22;12800;53.094;8.778;2022-10-31T02:34:35;15.00;90.90
24678;DHT22;12800;53.094;8.778;2022-10-31T02:40:00;14.90;90.90
24678;DHT22;12800;53.094;8.778;2022-10-31T02:42:38;14.90;90.90
24678;DHT22;12800;53.094;8.778;2022-10-31T02:45:15;14.90;90.90
24678;DHT22;12800;53.094;8.778;2022-10-31T02:47:46;14.90;91.00
24678;DHT22;12800;53.094;8.778;2022-10-31T02:50:16;14.80;91.00
24678;DHT22;12800;53.094;8.778;2022-10-31T02:52:43;14.80;91.00
24678;DHT22;12800;53.094;8.778;2022-10-31T02:57:48;14.80;91.00
24678;DHT22;12800;53.094;8.778;2022-10-31T03:00:14;14.80;91.00
24678;DHT22;12800;53.094;8.778;2022-10-31T03:08:17;14.70;91.00
24678;DHT22;12800;53.094;8.778;2022-10-31T03:10:56;14.70;91.00
24678;DHT22;12800;53.094;8.778;2022-10-31T03:13:43;14.70;91.00
24678;DHT22;12800;53.094;8.778;2022-10-31T03:21:30;14.70;91.10
24678;DHT22;12800;53.094;8.778;2022-10-31T03:23:59;14.70;91.50
24678;DHT22;12800;53.094;8.778;2022-10-31T03:26:25;14.60;91.10
24678;DHT22;12800;53.094;8.778;2022-10-31T03:29:01;14.60;91.10
24678;DHT22;12800;53.094;8.778;2022-10-31T03:31:31;14.60;91.10
24678;DHT22;12800;53.094;8.778;2022-10-31T03:34:00;14.60;91.10
24678;DHT22;12800;53.094;8.778;2022-10-31T03:36:27;14.60;91.10
24678;DHT22;12800;53.094;8.778;2022-10-31T03:38:54;14.60;91.10
24678;DHT22;12800;53.094;8.778;2022-10-31T03:41:23;14.60;91.10
24678;DHT22;12800;53.094;8.778;2022-10-31T03:44:01;14.50;91.10
24678;DHT22;12800;53.094;8.778;2022-10-31T03:46:30;14.50;91.10
24678;DHT22;12800;53.094;8.778;2022-10-31T03:48:57;14.50;91.10
24678;DHT22;12800;53.094;8.778;2022-10-31T03:51:47;14.50;91.10
24678;DHT22;12800;53.094;8.778;2022-10-31T03:54:25;14.50;91.10
24678;DHT22;12800;53.094;8.778;2022-10-31T03:56:56;14.50;91.50
24678;DHT22;12800;53.094;8.778;2022-10-31T03:59:30;14.50;91.20
24678;DHT22;12800;53.094;8.778;2022-10-31T04:02:00;14.50;91.20
24678;DHT22;12800;53.094;8.778;2022-10-31T04:04:29;14.40;91.20
24678;DHT22;12800;53.094;8.778;2022-10-31T04:06:56;14.50;91.20
24678;DHT22;12800;53.094;8.778;2022-10-31T04:09:25;14.40;91.20
24678;DHT22;12800;53.094;8.778;2022-10-31T04:11:55;14.50;91.20
24678;DHT22;12800;53.094;8.778;2022-10-31T04:14:24;14.40;91.40
24678;DHT22;12800;53.094;8.778;2022-10-31T04:16:51;14.40;91.20
24678;DHT22;12800;53.094;8.778;2022-10-31T04:19:16;14.40;91.20
24678;DHT22;12800;53.094;8.778;2022-10-31T04:21:42;14.40;91.30
24678;DHT22;12800;53.094;8.778;2022-10-31T04:24:09;14.40;91.30
24678;DHT22;12800;53.094;8.778;2022-10-31T04:26:34;14.40;91.30
24678;DHT22;12800;53.094;8.778;2022-10-31T04:29:00;14.40;91.30
24678;DHT22;12800;53.094;8.778;2022-10-31T04:31:26;14.40;91.30
24678;DHT22;12800;53.094;8.778;2022-10-31T04:33:51;14.40;91.40
24678;DHT22;12800;53.094;8.778;2022-10-31T04:36:17;14.40;91.40
24678;DHT22;12800;53.094;8.778;2022-10-31T04:38:43;14.40;91.50
24678;DHT22;12800;53.094;8.778;2022-10-31T04:41:08;14.40;91.50
24678;DHT22;12800;53.094;8.778;2022-10-31T04:43:34;14.40;91.60
24678;DHT22;12800;53.094;8.778;2022-10-31T04:46:00;14.50;91.60
24678;DHT22;12800;53.094;8.778;2022-10-31T04:48:26;14.50;91.70
24678;DHT22;12800;53.094;8.778;2022-10-31T04:50:51;14.50;91.60
24678;DHT22;12800;53.094;8.778;2022-10-31T04:53:17;14.50;91.60
24678;DHT22;12800;53.094;8.778;2022-10-31T04:55:42;14.50;91.60
24678;DHT22;12800;53.094;8.778;2022-10-31T04:58:08;14.50;91.60
24678;DHT22;12800;53.094;8.778;2022-10-31T05:00:33;14.50;91.60
24678;DHT22;12800;53.094;8.778;2022-10-31T05:02:59;14.50;92.00
24678;DHT22;12800;53.094;8.778;2022-10-31T05:05:27;14.50;91.70
24678;DHT22;12800;53.094;8.778;2022-10-31T05:07:53;14.50;91.70
24678;DHT22;12800;53.094;8.778;2022-10-31T05:10:25;14.50;91.70
24678;DHT22;12800;53.094;8.778;2022-10-31T05:12:54;14.40;91.70
24678;DHT22;12800;53.094;8.778;2022-10-31T05:15:21;14.40;91.70
24678;DHT22;12800;53.094;8.778;2022-10-31T05:17:48;14.40;92.00
24678;DHT22;12800;53.094;8.778;2022-10-31T05:20:15;14.40;91.60
24678;DHT22;12800;53.094;8.778;2022-10-31T05:22:51;14.40;91.60
24678;DHT22;12800;53.094;8.778;2022-10-31T05:25:18;14.40;91.60
24678;DHT22;12800;53.094;8.778;2022-10-31T05:27:46;14.30;91.60
24678;DHT22;12800;53.094;8.778;2022-10-31T05:30:13;14.30;91.60
24678;DHT22;12800;53.094;8.778;2022-10-31T05:32:44;14.30;91.60
24678;DHT22;12800;53.094;8.778;2022-10-31T05:35:12;14.30;91.60
24678;DHT22;12800;53.094;8.778;2022-10-31T05:37:38;14.20;91.60
24678;DHT22;12800;53.094;8.778;2022-10-31T05:40:06;14.20;91.60
24678;DHT22;12800;53.094;8.778;2022-10-31T05:42:32;14.20;91.60
24678;DHT22;12800;53.094;8.778;2022-10-31T05:44:57;14.20;92.00
24678;DHT22;12800;53.094;8.778;2022-10-31T05:47:23;14.10;91.60
24678;DHT22;12800;53.094;8.778;2022-10-31T05:49:49;14.10;91.50
24678;DHT22;12800;53.094;8.778;2022-10-31T05:52:15;14.10;91.50
24678;DHT22;12800;53.094;8.778;2022-10-31T05:54:40;14.00;91.60
24678;DHT22;12800;53.094;8.778;2022-10-31T05:57:06;14.00;91.60
24678;DHT22;12800;53.094;8.778;2022-10-31T05:59:32;14.00;91.60
24678;DHT22;12800;53.094;8.778;2022-10-31T06:01:57;13.90;91.50
24678;DHT22;12800;53.094;8.778;2022-10-31T06:04:23;13.90;91.60
24678;DHT22;12800;53.094;8.778;2022-10-31T06:06:48;13.90;91.60
24678;DHT22;12800;53.094;8.778;2022-10-31T06:09:14;13.90;91.50
24678;DHT22;12800;53.094;8.778;2022-10-31T06:11:40;13.80;91.50
24678;DHT22;12800;53.094;8.778;2022-10-31T06:14:06;13.80;91.50
24678;DHT22;12800;53.094;8.778;2022-10-31T06:16:32;13.80;91.50
24678;DHT22;12800;53.094;8.778;2022-10-31T06:18:57;13.80;91.50
24678;DHT22;12800;53.094;8.778;2022-10-31T06:21:23;13.80;91.50
24678;DHT22;12800;53.094;8.778;2022-10-31T06:23:48;13.80;91.50
24678;DHT22;12800;53.094;8.778;2022-10-31T06:26:14;13.80;91.50
24678;DHT22;12800;53.094;8.778;2022-10-31T06:28:40;13.80;91.50
24678;DHT22;12800;53.094;8.778;2022-10-31T06:31:05;13.80;91.50
24678;DHT22;12800;53.094;8.778;2022-10-31T06:33:32;13.80;91.50
24678;DHT22;12800;53.094;8.778;2022-10-31T06:35:58;13.80;91.50
24678;DHT22;12800;53.094;8.778;2022-10-31T06:38:25;13.70;91.50
24678;DHT22;12800;53.094;8.778;2022-10-31T06:40:52;13.70;91.90
24678;DHT22;12800;53.094;8.778;2022-10-31T06:43:17;13.70;91.60
24678;DHT22;12800;53.094;8.778;2022-10-31T06:45:43;13.70;91.50
24678;DHT22;12800;53.094;8.778;2022-10-31T06:48:08;13.70;91.50
24678;DHT22;12800;53.094;8.778;2022-10-31T06:50:34;13.70;91.50
24678;DHT22;12800;53.094;8.778;2022-10-31T06:52:59;13.60;91.50
24678;DHT22;12800;53.094;8.778;2022-10-31T06:55:26;13.70;91.50
24678;DHT22;12800;53.094;8.778;2022-10-31T06:57:57;13.60;91.50
24678;DHT22;12800;53.094;8.778;2022-10-31T07:00:23;13.60;91.50
24678;DHT22;12800;53.094;8.778;2022-10-31T07:02:57;13.60;91.80
24678;DHT22;12800;53.094;8.778;2022-10-31T07:05:23;13.60;91.50
24678;DHT22;12800;53.094;8.778;2022-10-31T07:07:55;13.60;91.50
24678;DHT22;12800;53.094;8.778;2022-10-31T07:10:23;13.60;91.50
24678;DHT22;12800;53.094;8.778;2022-10-31T07:12:53;13.60;91.60
24678;DHT22;12800;53.094;8.778;2022-10-31T07:15:19;13.60;91.60
24678;DHT22;12800;53.094;8.778;2022-10-31T07:17:44;13.70;91.60
24678;DHT22;12800;53.094;8.778;2022-10-31T07:20:10;13.70;91.60
24678;DHT22;12800;53.094;8.778;2022-10-31T07:22:36;13.70;91.70
24678;DHT22;12800;53.094;8.778;2022-10-31T07:25:02;13.70;91.60
24678;DHT22;12800;53.094;8.778;2022-10-31T07:27:28;13.70;91.60
24678;DHT22;12800;53.094;8.778;2022-10-31T07:29:54;13.70;91.60
24678;DHT22;12800;53.094;8.778;2022-10-31T07:32:19;13.70;91.60
24678;DHT22;12800;53.094;8.778;2022-10-31T07:34:45;13.70;91.50
24678;DHT22;12800;53.094;8.778;2022-10-31T07:37:10;13.80;91.50
24678;DHT22;12800;53.094;8.778;2022-10-31T07:39:36;13.70;91.40
24678;DHT22;12800;53.094;8.778;2022-10-31T07:42:01;13.70;91.40
24678;DHT22;12800;53.094;8.778;2022-10-31T07:44:27;13.70;91.40
24678;DHT22;12800;53.094;8.778;2022-10-31T07:46:53;13.70;91.40
24678;DHT22;12800;53.094;8.778;2022-10-31T07:49:18;13.70;91.40
24678;DHT22;12800;53.094;8.778;2022-10-31T07:51:44;13.70;91.40
24678;DHT22;12800;53.094;8.778;2022-10-31T07:54:09;13.70;91.40
24678;DHT22;12800;53.094;8.778;2022-10-31T07:56:35;13.70;91.40
24678;DHT22;12800;53.094;8.778;2022-10-31T07:59:00;13.70;91.50
24678;DHT22;12800;53.094;8.778;2022-10-31T08:01:26;13.70;91.40
24678;DHT22;12800;53.094;8.778;2022-10-31T08:03:52;13.70;91.40
24678;DHT22;12800;53.094;8.778;2022-10-31T08:06:17;13.70;91.50
24678;DHT22;12800;53.094;8.778;2022-10-31T08:08:43;13.70;91.60
24678;DHT22;12800;53.094;8.778;2022-10-31T08:11:08;13.80;91.60
24678;DHT22;12800;53.094;8.778;2022-10-31T08:13:34;13.80;91.60
24678;DHT22;12800;53.094;8.778;2022-10-31T08:16:00;13.90;91.60
24678;DHT22;12800;53.094;8.778;2022-10-31T08:18:30;13.90;91.50
24678;DHT22;12800;53.094;8.778;2022-10-31T08:20:55;14.00;91.50
24678;DHT22;12800;53.094;8.778;2022-10-31T08:23:21;14.00;91.40
24678;DHT22;12800;53.094;8.778;2022-10-31T08:25:47;14.10;91.40
24678;DHT22;12800;53.094;8.778;2022-10-31T08:28:13;14.10;91.30
24678;DHT22;12800;53.094;8.778;2022-10-31T08:30:40;14.10;91.20
24678;DHT22;12800;53.094;8.778;2022-10-31T08:33:12;14.20;91.20
24678;DHT22;12800;53.094;8.778;2022-10-31T08:35:38;14.20;91.20
24678;DHT22;12800;53.094;8.778;2022-10-31T08:38:04;14.20;91.30
24678;DHT22;12800;53.094;8.778;2022-10-31T08:40:31;14.30;91.20
24678;DHT22;12800;53.094;8.778;2022-10-31T08:43:03;14.30;91.20
24678;DHT22;12800;53.094;8.778;2022-10-31T08:45:30;14.40;91.20
24678;DHT22;12800;53.094;8.778;2022-10-31T08:47:58;14.40;91.20
24678;DHT22;12800;53.094;8.778;2022-10-31T08:50:25;14.50;91.10
24678;DHT22;12800;53.094;8.778;2022-10-31T08:52:50;14.50;91.10
24678;DHT22;12800;53.094;8.778;2022-10-31T08:55:16;14.60;91.00
24678;DHT22;12800;53.094;8.778;2022-10-31T08:57:42;14.60;91.10
24678;DHT22;12800;53.094;8.778;2022-10-31T09:00:08;14.70;91.10
24678;DHT22;12800;53.094;8.778;2022-10-31T09:02:33;14.70;91.00
24678;DHT22;12800;53.094;8.778;2022-10-31T09:04:59;14.80;90.80
24678;DHT22;12800;53.094;8.778;2022-10-31T09:07:25;14.80;90.80
24678;DHT22;12800;53.094;8.778;2022-10-31T09:09:51;14.80;90.70
24678;DHT22;12800;53.094;8.778;2022-10-31T09:12:16;14.90;91.00
24678;DHT22;12800;53.094;8.778;2022-10-31T09:14:42;14.90;90.60
24678;DHT22;12800;53.094;8.778;2022-10-31T09:17:07;14.90;90.50
24678;DHT22;12800;53.094;8.778;2022-10-31T09:19:33;14.90;90.40
24678;DHT22;12800;53.094;8.778;2022-10-31T09:21:58;14.90;90.40
24678;DHT22;12800;53.094;8.778;2022-10-31T09:24:24;14.90;90.40
24678;DHT22;12800;53.094;8.778;2022-10-31T09:26:50;14.90;90.40
24678;DHT22;12800;53.094;8.778;2022-10-31T09:29:15;14.90;90.40
24678;DHT22;12800;53.094;8.778;2022-10-31T09:31:41;14.90;90.40
24678;DHT22;12800;53.094;8.778;2022-10-31T09:34:06;14.90;90.50
24678;DHT22;12800;53.094;8.778;2022-10-31T09:36:32;15.00;90.60
24678;DHT22;12800;53.094;8.778;2022-10-31T09:38:57;15.00;90.60
24678;DHT22;12800;53.094;8.778;2022-10-31T09:41:46;15.10;90.60
24678;DHT22;12800;53.094;8.778;2022-10-31T09:44:35;15.10;90.70
24678;DHT22;12800;53.094;8.778;2022-10-31T09:50:17;15.30;90.70
24678;DHT22;12800;53.094;8.778;2022-10-31T09:53:10;15.40;90.70
24678;DHT22;12800;53.094;8.778;2022-10-31T09:55:45;15.40;90.70
24678;DHT22;12800;53.094;8.778;2022-10-31T09:58:19;15.60;90.70
24678;DHT22;12800;53.094;8.778;2022-10-31T10:00:47;15.60;91.10
24678;DHT22;12800;53.094;8.778;2022-10-31T10:03:35;15.70;90.70
24678;DHT22;12800;53.094;8.778;2022-10-31T10:08:33;15.90;90.60
24678;DHT22;12800;53.094;8.778;2022-10-31T10:16:55;16.10;90.30
24678;DHT22;12800;53.094;8.778;2022-10-31T10:28:17;16.40;90.10
24678;DHT22;12800;53.094;8.778;2022-10-31T10:30:56;16.50;90.00
24678;DHT22;12800;53.094;8.778;2022-10-31T10:33:39;16.60;90.00
24678;DHT22;12800;53.094;8.778;2022-10-31T10:36:12;16.60;89.80
24678;DHT22;12800;53.094;8.778;2022-10-31T10:38:56;16.70;89.50
24678;DHT22;12800;53.094;8.778;2022-10-31T10:41:24;16.80;89.10
24678;DHT22;12800;53.094;8.778;2022-10-31T10:43:51;16.80;89.00
24678;DHT22;12800;53.094;8.778;2022-10-31T10:59:45;17.20;87.70
24678;DHT22;12800;53.094;8.778;2022-10-31T11:02:36;17.20;87.50
24678;DHT22;12800;53.094;8.778;2022-10-31T11:05:03;17.30;87.20
24678;DHT22;12800;53.094;8.778;2022-10-31T11:07:38;17.30;86.90
24678;DHT22;12800;53.094;8.778;2022-10-31T11:10:05;17.30;87.50
24678;DHT22;12800;53.094;8.778;2022-10-31T11:12:38;17.40;86.50
24678;DHT22;12800;53.094;8.778;2022-10-31T11:15:21;17.50;86.30
24678;DHT22;12800;53.094;8.778;2022-10-31T11:17:52;17.50;86.10
24678;DHT22;12800;53.094;8.778;2022-10-31T11:23:01;17.60;85.30
24678;DHT22;12800;53.094;8.778;2022-10-31T11:25:27;17.60;85.10
24678;DHT22;12800;53.094;8.778;2022-10-31T11:28:04;17.60;84.90
24678;DHT22;12800;53.094;8.778;2022-10-31T11:30:35;17.60;84.70
24678;DHT22;12800;53.094;8.778;2022-10-31T11:33:01;17.60;84.50
24678;DHT22;12800;53.094;8.778;2022-10-31T11:35:29;17.60;84.50
24678;DHT22;12800;53.094;8.778;2022-10-31T11:37:56;17.50;84.40
24678;DHT22;12800;53.094;8.778;2022-10-31T11:40:25;17.50;84.60
24678;DHT22;12800;53.094;8.778;2022-10-31T11:42:55;17.50;84.80
24678;DHT22;12800;53.094;8.778;2022-10-31T11:45:33;17.50;84.90
24678;DHT22;12800;53.094;8.778;2022-10-31T11:48:00;17.50;84.80
24678;DHT22;12800;53.094;8.778;2022-10-31T11:50:40;17.50;84.80
24678;DHT22;12800;53.094;8.778;2022-10-31T11:53:33;17.40;84.60
24678;DHT22;12800;53.094;8.778;2022-10-31T11:58:27;17.40;84.70
24678;DHT22;12800;53.094;8.778;2022-10-31T12:00:55;17.40;84.90
24678;DHT22;12800;53.094;8.778;2022-10-31T12:03:48;17.30;85.00
24678;DHT22;12800;53.094;8.778;2022-10-31T12:06:22;17.30;84.80
24678;DHT22;12800;53.094;8.778;2022-10-31T12:08:48;17.30;84.80
24678;DHT22;12800;53.094;8.778;2022-10-31T12:25:50;17.30;85.40
24678;DHT22;12800;53.094;8.778;2022-10-31T12:36:54;17.30;85.60
24678;DHT22;12800;53.094;8.778;2022-10-31T12:58:40;17.20;86.00
24678;DHT22;12800;53.094;8.778;2022-10-31T13:01:28;17.20;85.80
24678;DHT22;12800;53.094;8.778;2022-10-31T13:04:03;17.20;85.90
24678;DHT22;12800;53.094;8.778;2022-10-31T13:06:38;17.20;86.00
24678;DHT22;12800;53.094;8.778;2022-10-31T13:09:11;17.20;85.80
24678;DHT22;12800;53.094;8.778;2022-10-31T13:11:53;17.20;85.90
24678;DHT22;12800;53.094;8.778;2022-10-31T13:14:33;17.10;85.50
24678;DHT22;12800;53.094;8.778;2022-10-31T13:17:00;17.10;85.60
24678;DHT22;12800;53.094;8.778;2022-10-31T13:19:36;17.00;85.60
24678;DHT22;12800;53.094;8.778;2022-10-31T13:22:10;17.00;85.80
24678;DHT22;12800;53.094;8.778;2022-10-31T13:24:41;16.90;85.90
24678;DHT22;12800;53.094;8.778;2022-10-31T13:27:15;16.90;85.90
24678;DHT22;12800;53.094;8.778;2022-10-31T13:33:04;16.80;85.90
24678;DHT22;12800;53.094;8.778;2022-10-31T13:38:41;16.80;86.20
24678;DHT22;12800;53.094;8.778;2022-10-31T13:41:28;16.70;86.20
24678;DHT22;12800;53.094;8.778;2022-10-31T13:44:22;16.70;86.30
24678;DHT22;12800;53.094;8.778;2022-10-31T13:46:52;16.60;86.40
24678;DHT22;12800;53.094;8.778;2022-10-31T13:54:47;16.60;86.60
24678;DHT22;12800;53.094;8.778;2022-10-31T13:57:29;16.60;86.80
24678;DHT22;12800;53.094;8.778;2022-10-31T13:59:59;16.60;86.80
24678;DHT22;12800;53.094;8.778;2022-10-31T14:02:31;16.60;86.90
24678;DHT22;12800;53.094;8.778;2022-10-31T14:05:06;16.70;87.00
24678;DHT22;12800;53.094;8.778;2022-10-31T14:07:32;16.70;86.90
24678;DHT22;12800;53.094;8.778;2022-10-31T14:10:07;16.70;86.80
24678;DHT22;12800;53.094;8.778;2022-10-31T14:12:46;16.70;86.90
24678;DHT22;12800;53.094;8.778;2022-10-31T14:15:25;16.70;86.80
24678;DHT22;12800;53.094;8.778;2022-10-31T14:18:00;16.70;86.80
24678;DHT22;12800;53.094;8.778;2022-10-31T14:20:42;16.80;87.00
24678;DHT22;12800;53.094;8.778;2022-10-31T14:25:37;16.80;86.80
24678;DHT22;12800;53.094;8.778;2022-10-31T14:28:21;16.70;86.70
24678;DHT22;12800;53.094;8.778;2022-10-31T14:30:56;16.70;86.90
24678;DHT22;12800;53.094;8.778;2022-10-31T14:33:24;16.70;86.90
24678;DHT22;12800;53.094;8.778;2022-10-31T14:36:10;16.70;87.00
24678;DHT22;12800;53.094;8.778;2022-10-31T14:45:16;16.80;87.30
24678;DHT22;12800;53.094;8.778;2022-10-31T14:48:29;16.80;87.30
24678;DHT22;12800;53.094;8.778;2022-10-31T14:50:58;16.80;87.40
24678;DHT22;12800;53.094;8.778;2022-10-31T14:55:56;16.80;87.30
24678;DHT22;12800;53.094;8.778;2022-10-31T14:58:44;16.80;87.30
24678;DHT22;12800;53.094;8.778;2022-10-31T15:01:54;16.80;87.40
24678;DHT22;12800;53.094;8.778;2022-10-31T15:04:27;16.80;87.50
24678;DHT22;12800;53.094;8.778;2022-10-31T15:07:14;16.80;87.60
24678;DHT22;12800;53.094;8.778;2022-10-31T15:09:41;16.70;87.40
24678;DHT22;12800;53.094;8.778;2022-10-31T15:12:26;16.70;87.40
24678;DHT22;12800;53.094;8.778;2022-10-31T15:14:52;16.70;87.60
24678;DHT22;12800;53.094;8.778;2022-10-31T15:17:18;16.60;87.60
24678;DHT22;12800;53.094;8.778;2022-10-31T15:19:45;16.60;87.70
24678;DHT22;12800;53.094;8.778;2022-10-31T15:22:15;16.60;87.70
24678;DHT22;12800;53.094;8.778;2022-10-31T15:24:41;16.60;87.80
24678;DHT22;12800;53.094;8.778;2022-10-31T15:27:12;16.50;87.80
24678;DHT22;12800;53.094;8.778;2022-10-31T15:29:53;16.50;87.90
24678;DHT22;12800;53.094;8.778;2022-10-31T15:32:27;16.50;88.00
24678;DHT22;12800;53.094;8.778;2022-10-31T15:34:55;16.50;88.10
24678;DHT22;12800;53.094;8.778;2022-10-31T15:37:23;16.50;88.20
24678;DHT22;12800;53.094;8.778;2022-10-31T15:39:51;16.40;88.10
24678;DHT22;12800;53.094;8.778;2022-10-31T15:42:34;16.40;88.20
24678;DHT22;12800;53.094;8.778;2022-10-31T15:45:05;16.40;88.30
24678;DHT22;12800;53.094;8.778;2022-10-31T15:47:32;16.40;88.50
24678;DHT22;12800;53.094;8.778;2022-10-31T15:49:59;16.30;88.60
24678;DHT22;12800;53.094;8.778;2022-10-31T15:52:42;16.30;88.70
24678;DHT22;12800;53.094;8.778;2022-10-31T15:57:40;16.30;88.90
24678;DHT22;12800;53.094;8.778;2022-10-31T16:00:25;16.30;88.80
24678;DHT22;12800;53.094;8.778;2022-10-31T16:03:06;16.20;88.80
24678;DHT22;12800;53.094;8.778;2022-10-31T16:05:52;16.20;88.90
24678;DHT22;12800;53.094;8.778;2022-10-31T16:13:28;16.10;89.00
24678;DHT22;12800;53.094;8.778;2022-10-31T16:16:17;16.10;89.10
24678;DHT22;12800;53.094;8.778;2022-10-31T16:18:43;16.10;89.10
24678;DHT22;12800;53.094;8.778;2022-10-31T16:21:09;16.10;89.20
24678;DHT22;12800;53.094;8.778;2022-10-31T16:23:37;16.00;89.10
24678;DHT22;12800;53.094;8.778;2022-10-31T16:26:07;16.00;89.10
24678;DHT22;12800;53.094;8.778;2022-10-31T16:28:34;16.00;89.00
24678;DHT22;12800;53.094;8.778;2022-10-31T16:31:00;16.00;89.20
24678;DHT22;12800;53.094;8.778;2022-10-31T16:35:52;15.90;89.20
24678;DHT22;12800;53.094;8.778;2022-10-31T16:38:18;15.90;89.30
24678;DHT22;12800;53.094;8.778;2022-10-31T16:40:44;15.90;89.40
24678;DHT22;12800;53.094;8.778;2022-10-31T16:43:14;15.90;89.40
24678;DHT22;12800;53.094;8.778;2022-10-31T16:45:48;15.90;89.40
24678;DHT22;12800;53.094;8.778;2022-10-31T16:48:16;15.90;89.40
24678;DHT22;12800;53.094;8.778;2022-10-31T16:50:43;15.90;89.40
24678;DHT22;12800;53.094;8.778;2022-10-31T16:53:10;15.90;89.40
24678;DHT22;12800;53.094;8.778;2022-10-31T16:55:57;15.90;89.40
24678;DHT22;12800;53.094;8.778;2022-10-31T16:58:28;15.90;89.50
24678;DHT22;12800;53.094;8.778;2022-10-31T17:00:55;15.80;89.60
24678;DHT22;12800;53.094;8.778;2022-10-31T17:03:21;15.80;89.60
24678;DHT22;12800;53.094;8.778;2022-10-31T17:05:47;15.80;89.60
24678;DHT22;12800;53.094;8.778;2022-10-31T17:08:13;15.80;89.60
24678;DHT22;12800;53.094;8.778;2022-10-31T17:10:39;15.80;89.70
24678;DHT22;12800;53.094;8.778;2022-10-31T17:13:08;15.80;89.70
24678;DHT22;12800;53.094;8.778;2022-10-31T17:15:41;15.80;89.70
24678;DHT22;12800;53.094;8.778;2022-10-31T17:18:11;15.70;89.80
24678;DHT22;12800;53.094;8.778;2022-10-31T17:20:37;15.70;89.80
24678;DHT22;12800;53.094;8.778;2022-10-31T17:23:03;15.70;89.90
24678;DHT22;12800;53.094;8.778;2022-10-31T17:25:29;15.70;89.90
24678;DHT22;12800;53.094;8.778;2022-10-31T17:27:58;15.70;90.00
24678;DHT22;12800;53.094;8.778;2022-10-31T17:30:24;15.70;89.90
24678;DHT22;12800;53.094;8.778;2022-10-31T17:32:50;15.70;90.00
24678;DHT22;12800;53.094;8.778;2022-10-31T17:35:17;15.70;90.00
24678;DHT22;12800;53.094;8.778;2022-10-31T17:37:44;15.70;90.00
24678;DHT22;12800;53.094;8.778;2022-10-31T17:40:11;15.70;90.00
24678;DHT22;12800;53.094;8.778;2022-10-31T17:42:38;15.70;90.00
24678;DHT22;12800;53.094;8.778;2022-10-31T17:45:05;15.70;90.00
24678;DHT22;12800;53.094;8.778;2022-10-31T17:47:31;15.70;89.90
24678;DHT22;12800;53.094;8.778;2022-10-31T17:49:57;15.70;89.80
24678;DHT22;12800;53.094;8.778;2022-10-31T17:52:23;15.70;89.70
24678;DHT22;12800;53.094;8.778;2022-10-31T17:54:48;15.60;89.60
24678;DHT22;12800;53.094;8.778;2022-10-31T17:57:14;15.60;89.60
24678;DHT22;12800;53.094;8.778;2022-10-31T17:59:41;15.60;89.70
24678;DHT22;12800;53.094;8.778;2022-10-31T18:02:08;15.60;89.70
24678;DHT22;12800;53.094;8.778;2022-10-31T18:04:35;15.60;89.70
24678;DHT22;12800;53.094;8.778;2022-10-31T18:07:01;15.60;89.60
24678;DHT22;12800;53.094;8.778;2022-10-31T18:09:27;15.60;89.60
24678;DHT22;12800;53.094;8.778;2022-10-31T18:11:52;15.60;89.70
24678;DHT22;12800;53.094;8.778;2022-10-31T18:14:18;15.60;89.70
24678;DHT22;12800;53.094;8.778;2022-10-31T18:16:44;15.50;89.50